sensor_id;sensor_type;location;lat;lon;timestamp;P1;durP1;ratioP1;P2;durP2;ratioP2
19030;SDS011;9648;51.130;13.978;2023-08-08T00:01:10;7.25;;;2.00;;
19030;SDS011;9648;51.130;13.978;2023-08-08T00:03:37;6.78;;;2.50;;
19030;SDS011;9648;51.130;13.978;2023-08-08T00:06:04;4.45;;;2.25;;
19030;SDS011;9648;51.130;13.978;2023-08-08T00:08:31;6.97;;;2.67;;
19030;SDS011;9648;51.130;13.978;2023-08-08T00:10:57;5.32;;;2.47;;
19030;SDS011;9648;51.130;13.978;2023-08-08T00:13:26;5.73;;;2.60;;
19030;SDS011;9648;51.130;13.978;2023-08-08T00:15:52;5.07;;;2.43;;
19030;SDS011;9648;51.130;13.978;2023-08-08T00:18:19;5.07;;;2.45;;
19030;SDS011;9648;51.130;13.978;2023-08-08T00:20:46;5.93;;;2.53;;
19030;SDS011;9648;51.130;13.978;2023-08-08T00:23:13;5.75;;;2.33;;
19030;SDS011;9648;51.130;13.978;2023-08-08T00:25:40;5.53;;;2.28;;
19030;SDS011;9648;51.130;13.978;2023-08-08T00:28:06;5.57;;;2.50;;
19030;SDS011;9648;51.130;13.978;2023-08-08T00:30:35;5.57;;;2.35;;
19030;SDS011;9648;51.130;13.978;2023-08-08T00:33:02;6.57;;;2.45;;
19030;SDS011;9648;51.130;13.978;2023-08-08T00:35:29;7.07;;;2.60;;
19030;SDS011;9648;51.130;13.978;2023-08-08T00:37:56;4.72;;;2.40;;
19030;SDS011;9648;51.130;13.978;2023-08-08T00:40:23;6.43;;;2.63;;
19030;SDS011;9648;51.130;13.978;2023-08-08T00:42:50;4.70;;;2.30;;
19030;SDS011;9648;51.130;13.978;2023-08-08T00:45:16;3.80;;;2.40;;
19030;SDS011;9648;51.130;13.978;2023-08-08T00:47:44;5.97;;;2.40;;
19030;SDS011;9648;51.130;13.978;2023-08-08T00:50:11;7.28;;;2.47;;
19030;SDS011;9648;51.130;13.978;2023-08-08T00:52:40;5.82;;;2.47;;
19030;SDS011;9648;51.130;13.978;2023-08-08T00:55:08;4.90;;;2.40;;
19030;SDS011;9648;51.130;13.978;2023-08-08T00:57:35;5.18;;;2.10;;
19030;SDS011;9648;51.130;13.978;2023-08-08T01:00:04;5.72;;;2.63;;
19030;SDS011;9648;51.130;13.978;2023-08-08T01:02:32;5.82;;;2.15;;
19030;SDS011;9648;51.130;13.978;2023-08-08T01:05:00;6.13;;;2.10;;
19030;SDS011;9648;51.130;13.978;2023-08-08T01:07:30;6.57;;;2.45;;
19030;SDS011;9648;51.130;13.978;2023-08-08T01:10:05;7.03;;;2.42;;
19030;SDS011;9648;51.130;13.978;2023-08-08T01:12:37;4.88;;;2.50;;
19030;SDS011;9648;51.130;13.978;2023-08-08T01:15:07;5.63;;;2.23;;
19030;SDS011;9648;51.130;13.978;2023-08-08T01:17:35;6.13;;;2.65;;
19030;SDS011;9648;51.130;13.978;2023-08-08T01:20:04;10.85;;;4.97;;
19030;SDS011;9648;51.130;13.978;2023-08-08T01:22:36;6.43;;;3.00;;
19030;SDS011;9648;51.130;13.978;2023-08-08T01:25:07;6.20;;;2.33;;
19030;SDS011;9648;51.130;13.978;2023-08-08T01:27:36;4.97;;;2.30;;
19030;SDS011;9648;51.130;13.978;2023-08-08T01:30:03;7.72;;;2.38;;
19030;SDS011;9648;51.130;13.978;2023-08-08T01:32:36;7.82;;;2.38;;
19030;SDS011;9648;51.130;13.978;2023-08-08T01:35:04;5.50;;;2.22;;
19030;SDS011;9648;51.130;13.978;2023-08-08T01:37:32;8.38;;;2.55;;
19030;SDS011;9648;51.130;13.978;2023-08-08T01:40:04;6.95;;;2.10;;
19030;SDS011;9648;51.130;13.978;2023-08-08T01:42:35;7.80;;;2.43;;
19030;SDS011;9648;51.130;13.978;2023-08-08T01:45:03;5.93;;;2.13;;
19030;SDS011;9648;51.130;13.978;2023-08-08T01:47:33;5.72;;;2.10;;
19030;SDS011;9648;51.130;13.978;2023-08-08T01:50:00;5.32;;;2.35;;
19030;SDS011;9648;51.130;13.978;2023-08-08T01:52:28;3.92;;;2.08;;
19030;SDS011;9648;51.130;13.978;2023-08-08T01:54:55;5.32;;;2.30;;
19030;SDS011;9648;51.130;13.978;2023-08-08T01:57:23;7.20;;;2.40;;
19030;SDS011;9648;51.130;13.978;2023-08-08T01:59:50;5.88;;;2.15;;
19030;SDS011;9648;51.130;13.978;2023-08-08T02:02:16;5.27;;;2.10;;
19030;SDS011;9648;51.130;13.978;2023-08-08T02:04:43;5.85;;;1.80;;
19030;SDS011;9648;51.130;13.978;2023-08-08T02:07:10;5.43;;;2.30;;
19030;SDS011;9648;51.130;13.978;2023-08-08T02:09:37;5.55;;;2.45;;
19030;SDS011;9648;51.130;13.978;2023-08-08T02:12:04;6.33;;;2.23;;
19030;SDS011;9648;51.130;13.978;2023-08-08T02:14:33;5.72;;;2.58;;
19030;SDS011;9648;51.130;13.978;2023-08-08T02:16:59;4.95;;;2.00;;
19030;SDS011;9648;51.130;13.978;2023-08-08T02:19:26;4.05;;;2.10;;
19030;SDS011;9648;51.130;13.978;2023-08-08T02:21:54;4.43;;;2.17;;
19030;SDS011;9648;51.130;13.978;2023-08-08T02:24:21;4.65;;;2.30;;
19030;SDS011;9648;51.130;13.978;2023-08-08T02:26:48;4.80;;;2.28;;
19030;SDS011;9648;51.130;13.978;2023-08-08T02:29:14;5.20;;;2.20;;
19030;SDS011;9648;51.130;13.978;2023-08-08T02:31:43;6.55;;;2.35;;
19030;SDS011;9648;51.130;13.978;2023-08-08T02:34:09;5.40;;;1.90;;
19030;SDS011;9648;51.130;13.978;2023-08-08T02:36:36;3.63;;;2.00;;
19030;SDS011;9648;51.130;13.978;2023-08-08T02:39:03;3.45;;;2.13;;
19030;SDS011;9648;51.130;13.978;2023-08-08T02:41:29;5.28;;;2.20;;
19030;SDS011;9648;51.130;13.978;2023-08-08T02:43:56;4.20;;;2.00;;
19030;SDS011;9648;51.130;13.978;2023-08-08T02:46:23;6.63;;;3.08;;
19030;SDS011;9648;51.130;13.978;2023-08-08T02:48:51;4.82;;;2.50;;
19030;SDS011;9648;51.130;13.978;2023-08-08T02:51:18;5.03;;;2.50;;
19030;SDS011;9648;51.130;13.978;2023-08-08T02:53:45;6.20;;;2.10;;
19030;SDS011;9648;51.130;13.978;2023-08-08T02:56:12;5.80;;;2.40;;
19030;SDS011;9648;51.130;13.978;2023-08-08T02:58:38;4.32;;;2.17;;
19030;SDS011;9648;51.130;13.978;2023-08-08T03:01:05;7.40;;;2.33;;
19030;SDS011;9648;51.130;13.978;2023-08-08T03:03:32;5.45;;;1.98;;
19030;SDS011;9648;51.130;13.978;2023-08-08T03:06:00;5.07;;;2.10;;
19030;SDS011;9648;51.130;13.978;2023-08-08T03:08:28;5.13;;;2.30;;
19030;SDS011;9648;51.130;13.978;2023-08-08T03:10:54;5.40;;;2.05;;
19030;SDS011;9648;51.130;13.978;2023-08-08T03:13:21;5.10;;;2.20;;
19030;SDS011;9648;51.130;13.978;2023-08-08T03:15:48;3.90;;;1.90;;
19030;SDS011;9648;51.130;13.978;2023-08-08T03:18:15;4.47;;;2.13;;
19030;SDS011;9648;51.130;13.978;2023-08-08T03:20:42;6.15;;;2.10;;
19030;SDS011;9648;51.130;13.978;2023-08-08T03:23:10;5.90;;;2.40;;
19030;SDS011;9648;51.130;13.978;2023-08-08T03:25:37;5.18;;;2.10;;
19030;SDS011;9648;51.130;13.978;2023-08-08T03:28:04;6.18;;;1.90;;
19030;SDS011;9648;51.130;13.978;2023-08-08T03:30:30;6.60;;;2.10;;
19030;SDS011;9648;51.130;13.978;2023-08-08T03:32:57;4.63;;;2.22;;
19030;SDS011;9648;51.130;13.978;2023-08-08T03:35:24;5.53;;;2.33;;
19030;SDS011;9648;51.130;13.978;2023-08-08T03:37:52;3.67;;;2.03;;
19030;SDS011;9648;51.130;13.978;2023-08-08T03:40:20;4.53;;;2.10;;
19030;SDS011;9648;51.130;13.978;2023-08-08T03:42:46;6.35;;;2.30;;
19030;SDS011;9648;51.130;13.978;2023-08-08T03:45:13;5.30;;;2.33;;
19030;SDS011;9648;51.130;13.978;2023-08-08T03:47:40;6.40;;;2.30;;
19030;SDS011;9648;51.130;13.978;2023-08-08T03:50:07;5.88;;;2.22;;
19030;SDS011;9648;51.130;13.978;2023-08-08T03:52:35;5.10;;;2.20;;
19030;SDS011;9648;51.130;13.978;2023-08-08T03:55:03;6.22;;;2.35;;
19030;SDS011;9648;51.130;13.978;2023-08-08T03:57:32;3.80;;;2.20;;
19030;SDS011;9648;51.130;13.978;2023-08-08T03:59:59;5.80;;;2.42;;
19030;SDS011;9648;51.130;13.978;2023-08-08T04:02:25;3.40;;;2.30;;
19030;SDS011;9648;51.130;13.978;2023-08-08T04:04:53;4.07;;;2.30;;
19030;SDS011;9648;51.130;13.978;2023-08-08T04:07:20;4.53;;;2.45;;
19030;SDS011;9648;51.130;13.978;2023-08-08T04:09:47;6.78;;;2.40;;
19030;SDS011;9648;51.130;13.978;2023-08-08T04:12:13;4.68;;;2.20;;
19030;SDS011;9648;51.130;13.978;2023-08-08T04:14:41;4.63;;;2.10;;
19030;SDS011;9648;51.130;13.978;2023-08-08T04:17:08;4.38;;;2.10;;
19030;SDS011;9648;51.130;13.978;2023-08-08T04:19:35;4.67;;;2.40;;
19030;SDS011;9648;51.130;13.978;2023-08-08T04:22:02;5.90;;;2.20;;
19030;SDS011;9648;51.130;13.978;2023-08-08T04:24:29;5.45;;;2.30;;
19030;SDS011;9648;51.130;13.978;2023-08-08T04:26:56;6.00;;;2.20;;
19030;SDS011;9648;51.130;13.978;2023-08-08T04:29:23;5.22;;;2.30;;
19030;SDS011;9648;51.130;13.978;2023-08-08T04:31:51;3.90;;;2.10;;
19030;SDS011;9648;51.130;13.978;2023-08-08T04:34:18;4.57;;;2.10;;
19030;SDS011;9648;51.130;13.978;2023-08-08T04:36:44;5.40;;;1.95;;
19030;SDS011;9648;51.130;13.978;2023-08-08T04:39:11;3.75;;;1.90;;
19030;SDS011;9648;51.130;13.978;2023-08-08T04:41:38;7.20;;;2.10;;
19030;SDS011;9648;51.130;13.978;2023-08-08T04:44:05;4.95;;;1.90;;
19030;SDS011;9648;51.130;13.978;2023-08-08T04:46:31;4.57;;;1.90;;
19030;SDS011;9648;51.130;13.978;2023-08-08T04:48:59;3.13;;;1.88;;
19030;SDS011;9648;51.130;13.978;2023-08-08T04:51:26;4.18;;;2.00;;
19030;SDS011;9648;51.130;13.978;2023-08-08T04:53:53;3.50;;;2.10;;
19030;SDS011;9648;51.130;13.978;2023-08-08T04:56:20;4.20;;;1.80;;
19030;SDS011;9648;51.130;13.978;2023-08-08T04:58:47;5.40;;;1.83;;
19030;SDS011;9648;51.130;13.978;2023-08-08T05:01:13;5.50;;;2.20;;
19030;SDS011;9648;51.130;13.978;2023-08-08T05:03:42;3.88;;;1.90;;
19030;SDS011;9648;51.130;13.978;2023-08-08T05:06:11;5.78;;;2.10;;
19030;SDS011;9648;51.130;13.978;2023-08-08T05:08:37;4.40;;;2.03;;
19030;SDS011;9648;51.130;13.978;2023-08-08T05:11:04;3.53;;;2.15;;
19030;SDS011;9648;51.130;13.978;2023-08-08T05:13:31;3.28;;;2.00;;
19030;SDS011;9648;51.130;13.978;2023-08-08T05:15:58;4.32;;;1.90;;
19030;SDS011;9648;51.130;13.978;2023-08-08T05:18:24;5.38;;;2.00;;
19030;SDS011;9648;51.130;13.978;2023-08-08T05:20:51;4.00;;;1.80;;
19030;SDS011;9648;51.130;13.978;2023-08-08T05:23:19;4.97;;;2.10;;
19030;SDS011;9648;51.130;13.978;2023-08-08T05:25:46;6.55;;;2.20;;
19030;SDS011;9648;51.130;13.978;2023-08-08T05:28:13;4.22;;;2.10;;
19030;SDS011;9648;51.130;13.978;2023-08-08T05:30:40;5.63;;;2.15;;
19030;SDS011;9648;51.130;13.978;2023-08-08T05:33:06;4.23;;;1.93;;
19030;SDS011;9648;51.130;13.978;2023-08-08T05:35:33;5.10;;;2.10;;
19030;SDS011;9648;51.130;13.978;2023-08-08T05:38:00;3.15;;;1.83;;
19030;SDS011;9648;51.130;13.978;2023-08-08T05:40:28;3.90;;;1.73;;
19030;SDS011;9648;51.130;13.978;2023-08-08T05:42:55;4.40;;;1.98;;
19030;SDS011;9648;51.130;13.978;2023-08-08T05:45:22;4.97;;;1.90;;
19030;SDS011;9648;51.130;13.978;2023-08-08T05:47:49;5.35;;;1.88;;
19030;SDS011;9648;51.130;13.978;2023-08-08T05:50:16;3.85;;;2.00;;
19030;SDS011;9648;51.130;13.978;2023-08-08T05:52:42;3.25;;;1.88;;
19030;SDS011;9648;51.130;13.978;2023-08-08T05:55:09;3.72;;;1.90;;
19030;SDS011;9648;51.130;13.978;2023-08-08T05:57:37;3.00;;;1.67;;
19030;SDS011;9648;51.130;13.978;2023-08-08T06:00:04;3.10;;;1.75;;
19030;SDS011;9648;51.130;13.978;2023-08-08T06:02:35;3.05;;;1.77;;
19030;SDS011;9648;51.130;13.978;2023-08-08T06:05:02;4.15;;;1.52;;
19030;SDS011;9648;51.130;13.978;2023-08-08T06:07:30;3.40;;;1.60;;
19030;SDS011;9648;51.130;13.978;2023-08-08T06:09:56;3.42;;;1.80;;
19030;SDS011;9648;51.130;13.978;2023-08-08T06:12:23;3.92;;;1.65;;
19030;SDS011;9648;51.130;13.978;2023-08-08T06:14:51;4.05;;;1.65;;
19030;SDS011;9648;51.130;13.978;2023-08-08T06:17:18;3.60;;;1.45;;
19030;SDS011;9648;51.130;13.978;2023-08-08T06:19:45;5.68;;;1.75;;
19030;SDS011;9648;51.130;13.978;2023-08-08T06:22:12;3.70;;;1.70;;
19030;SDS011;9648;51.130;13.978;2023-08-08T06:24:39;3.80;;;1.55;;
19030;SDS011;9648;51.130;13.978;2023-08-08T06:27:05;4.95;;;1.65;;
19030;SDS011;9648;51.130;13.978;2023-08-08T06:29:32;4.50;;;1.58;;
19030;SDS011;9648;51.130;13.978;2023-08-08T06:32:00;4.05;;;1.55;;
19030;SDS011;9648;51.130;13.978;2023-08-08T06:34:27;4.68;;;1.73;;
19030;SDS011;9648;51.130;13.978;2023-08-08T06:36:54;2.80;;;1.63;;
19030;SDS011;9648;51.130;13.978;2023-08-08T06:39:21;4.05;;;1.35;;
19030;SDS011;9648;51.130;13.978;2023-08-08T06:41:47;3.37;;;1.50;;
19030;SDS011;9648;51.130;13.978;2023-08-08T06:44:14;3.67;;;1.60;;
19030;SDS011;9648;51.130;13.978;2023-08-08T06:46:42;4.75;;;1.60;;
19030;SDS011;9648;51.130;13.978;2023-08-08T06:49:10;5.13;;;1.63;;
19030;SDS011;9648;51.130;13.978;2023-08-08T06:51:37;2.60;;;1.50;;
19030;SDS011;9648;51.130;13.978;2023-08-08T06:54:04;2.72;;;1.35;;
19030;SDS011;9648;51.130;13.978;2023-08-08T06:56:31;3.57;;;1.70;;
19030;SDS011;9648;51.130;13.978;2023-08-08T06:58:57;3.85;;;1.55;;
19030;SDS011;9648;51.130;13.978;2023-08-08T07:01:24;3.88;;;1.50;;
19030;SDS011;9648;51.130;13.978;2023-08-08T07:03:51;2.78;;;1.40;;
19030;SDS011;9648;51.130;13.978;2023-08-08T07:06:19;3.50;;;1.70;;
19030;SDS011;9648;51.130;13.978;2023-08-08T07:08:46;3.30;;;1.58;;
19030;SDS011;9648;51.130;13.978;2023-08-08T07:11:13;4.18;;;1.50;;
19030;SDS011;9648;51.130;13.978;2023-08-08T07:13:39;3.47;;;1.65;;
19030;SDS011;9648;51.130;13.978;2023-08-08T07:16:06;3.00;;;1.40;;
19030;SDS011;9648;51.130;13.978;2023-08-08T07:18:33;2.28;;;1.25;;
19030;SDS011;9648;51.130;13.978;2023-08-08T07:21:00;2.88;;;1.63;;
19030;SDS011;9648;51.130;13.978;2023-08-08T07:23:28;3.97;;;1.70;;
19030;SDS011;9648;51.130;13.978;2023-08-08T07:25:55;4.20;;;1.60;;
19030;SDS011;9648;51.130;13.978;2023-08-08T07:28:23;2.00;;;1.50;;
19030;SDS011;9648;51.130;13.978;2023-08-08T07:30:49;3.27;;;1.60;;
19030;SDS011;9648;51.130;13.978;2023-08-08T07:33:16;5.60;;;1.50;;
19030;SDS011;9648;51.130;13.978;2023-08-08T07:35:43;4.18;;;1.50;;
19030;SDS011;9648;51.130;13.978;2023-08-08T07:38:10;3.33;;;1.60;;
19030;SDS011;9648;51.130;13.978;2023-08-08T07:40:38;3.25;;;1.80;;
19030;SDS011;9648;51.130;13.978;2023-08-08T07:43:06;2.70;;;1.67;;
19030;SDS011;9648;51.130;13.978;2023-08-08T07:45:33;2.63;;;1.60;;
19030;SDS011;9648;51.130;13.978;2023-08-08T07:48:00;5.72;;;2.00;;
19030;SDS011;9648;51.130;13.978;2023-08-08T07:50:27;3.10;;;1.50;;
19030;SDS011;9648;51.130;13.978;2023-08-08T07:52:53;3.50;;;1.58;;
19030;SDS011;9648;51.130;13.978;2023-08-08T07:55:20;3.17;;;1.40;;
19030;SDS011;9648;51.130;13.978;2023-08-08T07:57:48;3.27;;;1.40;;
19030;SDS011;9648;51.130;13.978;2023-08-08T08:00:15;3.08;;;1.55;;
19030;SDS011;9648;51.130;13.978;2023-08-08T08:02:43;2.80;;;1.30;;
19030;SDS011;9648;51.130;13.978;2023-08-08T08:05:11;4.38;;;1.40;;
19030;SDS011;9648;51.130;13.978;2023-08-08T08:07:39;3.20;;;1.40;;
19030;SDS011;9648;51.130;13.978;2023-08-08T08:10:06;3.35;;;1.40;;
19030;SDS011;9648;51.130;13.978;2023-08-08T08:12:35;3.25;;;1.40;;
19030;SDS011;9648;51.130;13.978;2023-08-08T08:15:04;3.25;;;1.48;;
19030;SDS011;9648;51.130;13.978;2023-08-08T08:17:32;3.25;;;1.40;;
19030;SDS011;9648;51.130;13.978;2023-08-08T08:19:59;2.63;;;1.30;;
19030;SDS011;9648;51.130;13.978;2023-08-08T08:22:30;3.72;;;1.45;;
19030;SDS011;9648;51.130;13.978;2023-08-08T08:24:57;3.22;;;1.40;;
19030;SDS011;9648;51.130;13.978;2023-08-08T08:27:24;2.25;;;1.20;;
19030;SDS011;9648;51.130;13.978;2023-08-08T08:29:50;4.07;;;1.40;;
19030;SDS011;9648;51.130;13.978;2023-08-08T08:32:18;4.68;;;1.40;;
19030;SDS011;9648;51.130;13.978;2023-08-08T08:34:45;3.50;;;1.50;;
19030;SDS011;9648;51.130;13.978;2023-08-08T08:37:12;2.17;;;1.27;;
19030;SDS011;9648;51.130;13.978;2023-08-08T08:39:39;2.70;;;1.30;;
19030;SDS011;9648;51.130;13.978;2023-08-08T08:42:06;4.50;;;1.40;;
19030;SDS011;9648;51.130;13.978;2023-08-08T08:44:34;2.50;;;1.30;;
19030;SDS011;9648;51.130;13.978;2023-08-08T08:47:01;3.15;;;1.58;;
19030;SDS011;9648;51.130;13.978;2023-08-08T08:49:31;3.35;;;1.30;;
19030;SDS011;9648;51.130;13.978;2023-08-08T08:51:59;3.20;;;1.30;;
19030;SDS011;9648;51.130;13.978;2023-08-08T08:54:27;3.38;;;1.25;;
19030;SDS011;9648;51.130;13.978;2023-08-08T08:56:55;2.47;;;1.13;;
19030;SDS011;9648;51.130;13.978;2023-08-08T08:59:23;2.60;;;1.27;;
19030;SDS011;9648;51.130;13.978;2023-08-08T09:01:50;1.75;;;1.10;;
19030;SDS011;9648;51.130;13.978;2023-08-08T09:04:18;2.38;;;1.20;;
19030;SDS011;9648;51.130;13.978;2023-08-08T09:06:48;1.60;;;1.20;;
19030;SDS011;9648;51.130;13.978;2023-08-08T09:09:16;2.90;;;1.40;;
19030;SDS011;9648;51.130;13.978;2023-08-08T09:11:47;5.20;;;1.50;;
19030;SDS011;9648;51.130;13.978;2023-08-08T09:14:15;1.80;;;1.00;;
19030;SDS011;9648;51.130;13.978;2023-08-08T09:16:43;2.80;;;1.10;;
19030;SDS011;9648;51.130;13.978;2023-08-08T09:19:11;2.60;;;1.00;;
19030;SDS011;9648;51.130;13.978;2023-08-08T09:21:38;1.93;;;1.20;;
19030;SDS011;9648;51.130;13.978;2023-08-08T09:24:06;1.80;;;1.10;;
19030;SDS011;9648;51.130;13.978;2023-08-08T09:26:33;1.58;;;1.08;;
19030;SDS011;9648;51.130;13.978;2023-08-08T09:29:00;2.63;;;1.10;;
19030;SDS011;9648;51.130;13.978;2023-08-08T09:31:27;2.63;;;1.15;;
19030;SDS011;9648;51.130;13.978;2023-08-08T09:33:56;2.00;;;1.27;;
19030;SDS011;9648;51.130;13.978;2023-08-08T09:36:24;2.65;;;1.30;;
19030;SDS011;9648;51.130;13.978;2023-08-08T09:38:51;2.87;;;1.40;;
19030;SDS011;9648;51.130;13.978;2023-08-08T09:41:19;2.53;;;1.50;;
19030;SDS011;9648;51.130;13.978;2023-08-08T09:43:47;2.63;;;1.40;;
19030;SDS011;9648;51.130;13.978;2023-08-08T09:46:14;2.78;;;1.70;;
19030;SDS011;9648;51.130;13.978;2023-08-08T09:48:41;2.97;;;1.83;;
19030;SDS011;9648;51.130;13.978;2023-08-08T09:51:08;4.93;;;2.30;;
19030;SDS011;9648;51.130;13.978;2023-08-08T09:53:35;4.05;;;1.70;;
19030;SDS011;9648;51.130;13.978;2023-08-08T09:56:03;3.00;;;1.57;;
19030;SDS011;9648;51.130;13.978;2023-08-08T09:58:31;3.40;;;1.60;;
19030;SDS011;9648;51.130;13.978;2023-08-08T10:00:58;3.70;;;1.52;;
19030;SDS011;9648;51.130;13.978;2023-08-08T10:03:28;3.13;;;1.50;;
19030;SDS011;9648;51.130;13.978;2023-08-08T10:05:56;2.83;;;1.50;;
19030;SDS011;9648;51.130;13.978;2023-08-08T10:08:22;2.72;;;1.30;;
19030;SDS011;9648;51.130;13.978;2023-08-08T10:10:50;4.82;;;1.40;;
19030;SDS011;9648;51.130;13.978;2023-08-08T10:13:20;3.63;;;1.53;;
19030;SDS011;9648;51.130;13.978;2023-08-08T10:15:49;3.97;;;1.50;;
19030;SDS011;9648;51.130;13.978;2023-08-08T10:18:16;8.30;;;2.75;;
19030;SDS011;9648;51.130;13.978;2023-08-08T10:20:44;2.80;;;1.90;;
19030;SDS011;9648;51.130;13.978;2023-08-08T10:23:14;4.47;;;1.65;;
19030;SDS011;9648;51.130;13.978;2023-08-08T10:25:43;4.38;;;2.15;;
19030;SDS011;9648;51.130;13.978;2023-08-08T10:28:11;6.90;;;1.67;;
19030;SDS011;9648;51.130;13.978;2023-08-08T10:30:43;4.03;;;1.63;;
19030;SDS011;9648;51.130;13.978;2023-08-08T10:33:19;3.90;;;1.48;;
19030;SDS011;9648;51.130;13.978;2023-08-08T10:35:51;3.30;;;1.40;;
19030;SDS011;9648;51.130;13.978;2023-08-08T10:38:20;4.50;;;2.22;;
19030;SDS011;9648;51.130;13.978;2023-08-08T10:40:48;4.53;;;1.58;;
19030;SDS011;9648;51.130;13.978;2023-08-08T10:43:24;2.17;;;1.30;;
19030;SDS011;9648;51.130;13.978;2023-08-08T10:45:56;3.38;;;1.40;;
19030;SDS011;9648;51.130;13.978;2023-08-08T10:48:25;3.33;;;1.75;;
19030;SDS011;9648;51.130;13.978;2023-08-08T10:50:54;3.33;;;1.80;;
19030;SDS011;9648;51.130;13.978;2023-08-08T10:53:22;3.20;;;1.50;;
19030;SDS011;9648;51.130;13.978;2023-08-08T10:55:56;2.78;;;1.58;;
19030;SDS011;9648;51.130;13.978;2023-08-08T10:58:33;4.30;;;1.40;;
19030;SDS011;9648;51.130;13.978;2023-08-08T11:01:01;4.30;;;1.50;;
19030;SDS011;9648;51.130;13.978;2023-08-08T11:03:32;3.70;;;1.98;;
19030;SDS011;9648;51.130;13.978;2023-08-08T11:06:00;4.35;;;1.70;;
19030;SDS011;9648;51.130;13.978;2023-08-08T11:08:29;4.05;;;1.50;;
19030;SDS011;9648;51.130;13.978;2023-08-08T11:10:57;2.70;;;1.37;;
19030;SDS011;9648;51.130;13.978;2023-08-08T11:13:24;3.30;;;1.27;;
19030;SDS011;9648;51.130;13.978;2023-08-08T11:15:51;2.55;;;1.30;;
19030;SDS011;9648;51.130;13.978;2023-08-08T11:18:17;2.35;;;1.30;;
19030;SDS011;9648;51.130;13.978;2023-08-08T11:20:46;4.20;;;1.50;;
19030;SDS011;9648;51.130;13.978;2023-08-08T11:23:13;2.22;;;1.50;;
19030;SDS011;9648;51.130;13.978;2023-08-08T11:25:41;3.50;;;1.33;;
19030;SDS011;9648;51.130;13.978;2023-08-08T11:28:09;4.85;;;1.63;;
19030;SDS011;9648;51.130;13.978;2023-08-08T11:30:39;4.43;;;1.38;;
19030;SDS011;9648;51.130;13.978;2023-08-08T11:33:08;4.28;;;1.23;;
19030;SDS011;9648;51.130;13.978;2023-08-08T11:35:35;2.87;;;1.20;;
19030;SDS011;9648;51.130;13.978;2023-08-08T11:38:04;1.88;;;1.30;;
19030;SDS011;9648;51.130;13.978;2023-08-08T11:40:31;3.20;;;1.20;;
19030;SDS011;9648;51.130;13.978;2023-08-08T11:42:59;1.70;;;1.00;;
19030;SDS011;9648;51.130;13.978;2023-08-08T11:45:26;2.00;;;1.17;;
19030;SDS011;9648;51.130;13.978;2023-08-08T11:47:54;2.85;;;1.20;;
19030;SDS011;9648;51.130;13.978;2023-08-08T11:50:22;4.22;;;1.40;;
19030;SDS011;9648;51.130;13.978;2023-08-08T11:52:50;1.88;;;1.20;;
19030;SDS011;9648;51.130;13.978;2023-08-08T11:55:20;3.13;;;1.20;;
19030;SDS011;9648;51.130;13.978;2023-08-08T11:57:49;2.00;;;1.20;;
19030;SDS011;9648;51.130;13.978;2023-08-08T12:00:18;3.37;;;1.17;;
19030;SDS011;9648;51.130;13.978;2023-08-08T12:02:45;2.47;;;1.40;;
19030;SDS011;9648;51.130;13.978;2023-08-08T12:05:12;2.55;;;1.30;;
19030;SDS011;9648;51.130;13.978;2023-08-08T12:07:42;2.92;;;1.25;;
19030;SDS011;9648;51.130;13.978;2023-08-08T12:10:13;3.00;;;1.30;;
19030;SDS011;9648;51.130;13.978;2023-08-08T12:12:42;2.92;;;1.20;;
19030;SDS011;9648;51.130;13.978;2023-08-08T12:15:10;2.30;;;1.05;;
19030;SDS011;9648;51.130;13.978;2023-08-08T12:17:38;2.80;;;1.30;;
19030;SDS011;9648;51.130;13.978;2023-08-08T12:20:06;2.45;;;1.35;;
19030;SDS011;9648;51.130;13.978;2023-08-08T12:22:37;1.98;;;1.20;;
19030;SDS011;9648;51.130;13.978;2023-08-08T12:25:04;2.85;;;1.25;;
19030;SDS011;9648;51.130;13.978;2023-08-08T12:27:33;2.28;;;1.35;;
19030;SDS011;9648;51.130;13.978;2023-08-08T12:30:02;2.88;;;1.30;;
19030;SDS011;9648;51.130;13.978;2023-08-08T12:32:29;2.78;;;1.30;;
19030;SDS011;9648;51.130;13.978;2023-08-08T12:34:57;2.47;;;1.10;;
19030;SDS011;9648;51.130;13.978;2023-08-08T12:37:24;3.47;;;1.20;;
19030;SDS011;9648;51.130;13.978;2023-08-08T12:39:51;2.67;;;1.20;;
19030;SDS011;9648;51.130;13.978;2023-08-08T12:42:18;5.05;;;1.40;;
19030;SDS011;9648;51.130;13.978;2023-08-08T12:44:45;2.93;;;1.50;;
19030;SDS011;9648;51.130;13.978;2023-08-08T12:47:19;2.10;;;1.30;;
19030;SDS011;9648;51.130;13.978;2023-08-08T12:49:46;3.90;;;1.40;;
19030;SDS011;9648;51.130;13.978;2023-08-08T12:52:13;2.33;;;1.27;;
19030;SDS011;9648;51.130;13.978;2023-08-08T12:54:40;4.63;;;1.63;;
19030;SDS011;9648;51.130;13.978;2023-08-08T12:57:07;3.08;;;1.38;;
19030;SDS011;9648;51.130;13.978;2023-08-08T12:59:34;2.20;;;1.45;;
19030;SDS011;9648;51.130;13.978;2023-08-08T13:02:02;2.87;;;1.30;;
19030;SDS011;9648;51.130;13.978;2023-08-08T13:04:30;3.45;;;1.52;;
19030;SDS011;9648;51.130;13.978;2023-08-08T13:06:56;2.25;;;1.20;;
19030;SDS011;9648;51.130;13.978;2023-08-08T13:09:24;3.17;;;1.40;;
19030;SDS011;9648;51.130;13.978;2023-08-08T13:11:50;3.13;;;1.30;;
19030;SDS011;9648;51.130;13.978;2023-08-08T13:14:17;1.77;;;1.30;;
19030;SDS011;9648;51.130;13.978;2023-08-08T13:16:44;2.97;;;1.30;;
19030;SDS011;9648;51.130;13.978;2023-08-08T13:19:11;6.43;;;1.40;;
19030;SDS011;9648;51.130;13.978;2023-08-08T13:21:41;2.33;;;1.20;;
19030;SDS011;9648;51.130;13.978;2023-08-08T13:24:08;1.90;;;1.40;;
19030;SDS011;9648;51.130;13.978;2023-08-08T13:26:37;2.50;;;1.20;;
19030;SDS011;9648;51.130;13.978;2023-08-08T13:29:04;2.05;;;1.20;;
19030;SDS011;9648;51.130;13.978;2023-08-08T13:31:31;2.33;;;1.30;;
19030;SDS011;9648;51.130;13.978;2023-08-08T13:33:58;2.45;;;1.30;;
19030;SDS011;9648;51.130;13.978;2023-08-08T13:36:25;2.88;;;1.42;;
19030;SDS011;9648;51.130;13.978;2023-08-08T13:38:53;2.17;;;1.30;;
19030;SDS011;9648;51.130;13.978;2023-08-08T13:41:20;3.22;;;1.60;;
19030;SDS011;9648;51.130;13.978;2023-08-08T13:43:50;2.35;;;1.30;;
19030;SDS011;9648;51.130;13.978;2023-08-08T13:46:19;2.45;;;1.20;;
19030;SDS011;9648;51.130;13.978;2023-08-08T13:48:46;2.42;;;1.40;;
19030;SDS011;9648;51.130;13.978;2023-08-08T13:51:13;3.10;;;1.30;;
19030;SDS011;9648;51.130;13.978;2023-08-08T13:53:39;3.15;;;1.60;;
19030;SDS011;9648;51.130;13.978;2023-08-08T13:56:07;2.28;;;1.40;;
19030;SDS011;9648;51.130;13.978;2023-08-08T13:58:36;3.15;;;1.42;;
19030;SDS011;9648;51.130;13.978;2023-08-08T14:01:02;2.83;;;1.20;;
19030;SDS011;9648;51.130;13.978;2023-08-08T14:03:29;3.90;;;1.20;;
19030;SDS011;9648;51.130;13.978;2023-08-08T14:05:56;2.55;;;1.45;;
19030;SDS011;9648;51.130;13.978;2023-08-08T14:08:23;1.70;;;1.20;;
19030;SDS011;9648;51.130;13.978;2023-08-08T14:10:49;3.33;;;1.38;;
19030;SDS011;9648;51.130;13.978;2023-08-08T14:13:17;1.80;;;1.10;;
19030;SDS011;9648;51.130;13.978;2023-08-08T14:15:45;3.43;;;1.30;;
19030;SDS011;9648;51.130;13.978;2023-08-08T14:18:12;1.55;;;1.13;;
19030;SDS011;9648;51.130;13.978;2023-08-08T14:20:38;2.77;;;1.30;;
19030;SDS011;9648;51.130;13.978;2023-08-08T14:23:05;3.00;;;1.40;;
19030;SDS011;9648;51.130;13.978;2023-08-08T14:25:32;2.55;;;1.30;;
19030;SDS011;9648;51.130;13.978;2023-08-08T14:27:59;3.58;;;1.60;;
19030;SDS011;9648;51.130;13.978;2023-08-08T14:30:27;4.15;;;1.60;;
19030;SDS011;9648;51.130;13.978;2023-08-08T14:32:54;3.55;;;1.48;;
19030;SDS011;9648;51.130;13.978;2023-08-08T14:35:21;4.20;;;1.40;;
19030;SDS011;9648;51.130;13.978;2023-08-08T14:37:48;3.63;;;1.30;;
19030;SDS011;9648;51.130;13.978;2023-08-08T14:40:15;2.45;;;1.25;;
19030;SDS011;9648;51.130;13.978;2023-08-08T14:42:42;1.60;;;1.02;;
19030;SDS011;9648;51.130;13.978;2023-08-08T14:45:09;2.20;;;1.10;;
19030;SDS011;9648;51.130;13.978;2023-08-08T14:47:37;3.37;;;1.20;;
19030;SDS011;9648;51.130;13.978;2023-08-08T14:50:05;1.73;;;1.27;;